createdAt,value
2022-10-31T00:00:45.259Z,101459.59
2022-10-31T00:03:11.766Z,101463.97
2022-10-31T00:05:42.310Z,101466.63
2022-10-31T00:08:08.625Z,101474.47
2022-10-31T00:10:37.638Z,101468.47
2022-10-31T00:13:03.933Z,101476.31
2022-10-31T00:15:30.223Z,101466.75
2022-10-31T00:17:56.698Z,101474.59
2022-10-31T00:20:23.182Z,101472.88
2022-10-31T00:22:49.514Z,101471.09
2022-10-31T00:25:15.933Z,101473.72
2022-10-31T00:27:42.210Z,101484.16
2022-10-31T00:30:09.009Z,101486.81
2022-10-31T00:32:35.313Z,101479.84
2022-10-31T00:35:01.616Z,101485.06
2022-10-31T00:37:28.096Z,101488.56
2022-10-31T00:39:54.406Z,101488.53
2022-10-31T00:42:20.770Z,101488.56
2022-10-31T00:44:47.091Z,101496.44
2022-10-31T00:47:13.380Z,101492.91
2022-10-31T00:49:39.642Z,101496.41
2022-10-31T00:52:05.962Z,101505.09
2022-10-31T00:54:32.426Z,101495.53
2022-10-31T00:56:58.766Z,101495.50
2022-10-31T00:59:25.175Z,101491.97
2022-10-31T01:01:51.557Z,101484.13
2022-10-31T01:04:17.966Z,101490.19
2022-10-31T01:06:44.318Z,101477.16
2022-10-31T01:09:10.637Z,101478.06
2022-10-31T01:11:37.024Z,101484.16
2022-10-31T01:14:03.329Z,101488.50
2022-10-31T01:16:30.542Z,101489.34
2022-10-31T01:18:57.055Z,101496.25
2022-10-31T01:21:25.892Z,101497.94
2022-10-31T01:23:54.647Z,101502.31
2022-10-31T01:26:23.348Z,101495.25
2022-10-31T01:29:05.515Z,101507.41
2022-10-31T01:31:35.051Z,101503.94
2022-10-31T01:34:01.719Z,101507.38
2022-10-31T01:36:37.221Z,101502.97
2022-10-31T01:39:15.584Z,101515.16
2022-10-31T01:41:51.001Z,101515.09
2022-10-31T01:44:17.306Z,101526.31
2022-10-31T01:46:54.545Z,101532.34
2022-10-31T01:49:43.089Z,101531.41
2022-10-31T01:52:36.266Z,101533.16
2022-10-31T01:55:07.920Z,101531.44
2022-10-31T01:57:38.670Z,101541.00
2022-10-31T02:00:09.849Z,101533.06
2022-10-31T02:02:36.831Z,101541.63
2022-10-31T02:05:07.070Z,101538.09
2022-10-31T02:07:45.360Z,101552.88
2022-10-31T02:10:11.796Z,101539.72
2022-10-31T02:12:39.056Z,101558.03
2022-10-31T02:15:06.429Z,101567.69
2022-10-31T02:17:33.993Z,101558.13
2022-10-31T02:20:20.371Z,101565.88
2022-10-31T02:22:59.006Z,101549.34
2022-10-31T02:26:03.935Z,101555.47
2022-10-31T02:29:08.893Z,101559.91
2022-10-31T02:32:09.048Z,101572.16
2022-10-31T02:35:18.423Z,101573.00
2022-10-31T02:37:57.572Z,101574.72
2022-10-31T02:40:31.500Z,101579.03
2022-10-31T02:43:01.030Z,101572.88
2022-10-31T02:45:34.427Z,101578.03
2022-10-31T02:48:10.760Z,101585.91
2022-10-31T02:50:43.182Z,101588.47
2022-10-31T02:53:09.497Z,101589.22
2022-10-31T02:55:35.833Z,101588.28
2022-10-31T02:58:05.771Z,101590.00
2022-10-31T03:00:58.373Z,101593.34
2022-10-31T03:03:49.071Z,101592.41
2022-10-31T03:06:21.438Z,101602.88
2022-10-31T03:09:03.452Z,101604.56
2022-10-31T03:11:34.833Z,101602.78
2022-10-31T03:14:12.849Z,101604.47
2022-10-31T03:16:48.715Z,101613.22
2022-10-31T03:19:30.139Z,101615.84
2022-10-31T03:22:05.668Z,101614.97
2022-10-31T03:24:36.569Z,101620.22
2022-10-31T03:27:05.561Z,101620.09
2022-10-31T03:29:37.491Z,101617.47
2022-10-31T03:32:25.287Z,101624.50
2022-10-31T03:34:55.019Z,101628.84
2022-10-31T03:37:22.677Z,101634.06
2022-10-31T03:39:50.456Z,101632.44
2022-10-31T03:42:26.743Z,101636.78
2022-10-31T03:45:04.215Z,101641.22
2022-10-31T03:47:30.744Z,101640.41
2022-10-31T03:49:57.528Z,101637.81
2022-10-31T03:52:34.398Z,101649.97
2022-10-31T03:55:08.996Z,101655.28
2022-10-31T03:57:44.107Z,101654.47
2022-10-31T04:00:16.014Z,101657.94
2022-10-31T04:02:48.488Z,101660.59
2022-10-31T04:05:18.225Z,101656.22
2022-10-31T04:07:48.229Z,101665.75
2022-10-31T04:10:16.328Z,101668.31
2022-10-31T04:12:48.162Z,101671.84
2022-10-31T04:15:14.824Z,101673.66
2022-10-31T04:17:44.938Z,101681.59
2022-10-31T04:20:11.985Z,101685.84
2022-10-31T04:22:38.289Z,101681.47
2022-10-31T04:25:05.073Z,101681.47
2022-10-31T04:27:31.362Z,101690.19
2022-10-31T04:29:57.641Z,101694.53
2022-10-31T04:32:23.990Z,101684.91
2022-10-31T04:34:50.287Z,101688.44
2022-10-31T04:37:16.567Z,101689.38
2022-10-31T04:39:42.844Z,101694.59
2022-10-31T04:42:09.125Z,101691.09
2022-10-31T04:44:35.757Z,101690.19
2022-10-31T04:47:02.067Z,101698.00
2022-10-31T04:49:28.361Z,101699.75
2022-10-31T04:51:54.667Z,101701.47
2022-10-31T04:54:20.928Z,101694.44
2022-10-31T04:56:47.215Z,101703.22
2022-10-31T04:59:13.532Z,101707.53
2022-10-31T05:01:39.956Z,101711.16
2022-10-31T05:04:06.293Z,101712.88
2022-10-31T05:06:32.698Z,101716.31
2022-10-31T05:08:59.558Z,101702.44
2022-10-31T05:11:25.844Z,101714.63
2022-10-31T05:13:52.170Z,101712.06
2022-10-31T05:16:18.453Z,101707.75
2022-10-31T05:18:44.782Z,101709.53
2022-10-31T05:21:11.138Z,101712.16
2022-10-31T05:23:37.432Z,101711.19
2022-10-31T05:26:03.809Z,101712.00
2022-10-31T05:28:30.129Z,101717.22
2022-10-31T05:30:56.444Z,101718.13
2022-10-31T05:33:22.755Z,101718.13
2022-10-31T05:35:49.086Z,101725.13
2022-10-31T05:38:15.355Z,101717.28
2022-10-31T05:40:41.689Z,101719.84
2022-10-31T05:43:07.998Z,101722.47
2022-10-31T05:45:34.316Z,101721.63
2022-10-31T05:48:02.943Z,101726.03
2022-10-31T05:50:31.831Z,101721.63
2022-10-31T05:53:01.700Z,101720.75
2022-10-31T05:55:28.869Z,101720.72
2022-10-31T05:57:55.954Z,101715.44
2022-10-31T06:00:23.813Z,101717.16
2022-10-31T06:02:50.185Z,101718.91
2022-10-31T06:05:17.436Z,101709.34
2022-10-31T06:07:43.826Z,101724.16
2022-10-31T06:10:10.456Z,101729.38
2022-10-31T06:12:41.370Z,101728.47
2022-10-31T06:15:09.325Z,101719.72
2022-10-31T06:17:36.420Z,101728.53
2022-10-31T06:20:03.770Z,101726.78
2022-10-31T06:22:30.224Z,101729.44
2022-10-31T06:24:56.530Z,101738.13
2022-10-31T06:27:23.318Z,101736.38
2022-10-31T06:29:49.590Z,101739.06
2022-10-31T06:32:16.528Z,101739.06
2022-10-31T06:34:43.594Z,101741.63
2022-10-31T06:37:11.665Z,101744.19
2022-10-31T06:39:37.982Z,101747.72
2022-10-31T06:42:04.821Z,101763.41
2022-10-31T06:44:32.026Z,101765.13
2022-10-31T06:46:58.380Z,101767.75
2022-10-31T06:49:24.757Z,101758.13
2022-10-31T06:51:51.831Z,101757.25
2022-10-31T06:54:18.433Z,101761.63
2022-10-31T06:56:47.917Z,101762.47
2022-10-31T06:59:15.005Z,101766.03
2022-10-31T07:01:41.487Z,101775.63
2022-10-31T07:04:12.279Z,101770.34
2022-10-31T07:06:39.134Z,101781.69
2022-10-31T07:09:05.967Z,101785.13
2022-10-31T07:11:32.381Z,101792.13
2022-10-31T07:13:58.874Z,101792.13
2022-10-31T07:16:25.251Z,101799.09
2022-10-31T07:18:51.539Z,101797.34
2022-10-31T07:21:17.852Z,101793.88
2022-10-31T07:23:44.163Z,101792.16
2022-10-31T07:26:11.007Z,101807.00
2022-10-31T07:28:37.341Z,101801.78
2022-10-31T07:31:03.661Z,101807.03
2022-10-31T07:33:30.091Z,101816.66
2022-10-31T07:35:56.467Z,101817.44
2022-10-31T07:38:22.896Z,101812.22
2022-10-31T07:40:53.808Z,101803.56
2022-10-31T07:43:20.771Z,101817.69
2022-10-31T07:45:54.368Z,101821.16
2022-10-31T07:48:21.090Z,101821.97
2022-10-31T07:50:47.725Z,101818.47
2022-10-31T07:53:15.487Z,101819.31
2022-10-31T07:55:41.937Z,101823.69
2022-10-31T07:58:18.184Z,101825.53
2022-10-31T08:00:46.229Z,101825.53
2022-10-31T08:03:15.270Z,101831.63
2022-10-31T08:05:42.223Z,101832.47
2022-10-31T08:08:09.387Z,101828.88
2022-10-31T08:10:36.710Z,101836.66
2022-10-31T08:13:09.145Z,101841.00
2022-10-31T08:15:38.900Z,101830.59
2022-10-31T08:18:06.329Z,101830.59
2022-10-31T08:20:32.997Z,101833.25
2022-10-31T08:23:04.433Z,101823.66
2022-10-31T08:25:35.640Z,101821.75
2022-10-31T08:28:06.214Z,101826.09
2022-10-31T08:30:34.981Z,101818.41
2022-10-31T08:33:04.860Z,101828.94
2022-10-31T08:35:32.596Z,101825.31
2022-10-31T08:37:59.988Z,101826.19
2022-10-31T08:40:28.173Z,101823.53
2022-10-31T08:43:02.671Z,101819.19
2022-10-31T08:45:30.494Z,101818.31
2022-10-31T08:48:01.974Z,101821.88
2022-10-31T08:50:30.780Z,101814.81
2022-10-31T08:53:06.973Z,101817.41
2022-10-31T08:55:37.258Z,101819.94
2022-10-31T08:58:05.978Z,101826.03
2022-10-31T09:00:33.954Z,101829.59
2022-10-31T09:03:03.397Z,101833.91
2022-10-31T09:05:30.719Z,101827.19
2022-10-31T09:08:02.079Z,101823.59
2022-10-31T09:10:29.919Z,101814.81
2022-10-31T09:13:00.828Z,101811.25
2022-10-31T09:15:28.368Z,101818.22
2022-10-31T09:17:55.406Z,101812.09
2022-10-31T09:20:22.301Z,101808.69
2022-10-31T09:22:48.820Z,101814.59
2022-10-31T09:25:15.276Z,101803.97
2022-10-31T09:27:41.878Z,101794.63
2022-10-31T09:30:09.569Z,101796.56
2022-10-31T09:32:35.869Z,101792.03
2022-10-31T09:35:02.228Z,101801.44
2022-10-31T09:37:28.679Z,101794.41
2022-10-31T09:39:55.036Z,101784.78
2022-10-31T09:42:57.009Z,101780.31
2022-10-31T09:45:41.621Z,101786.53
2022-10-31T09:48:32.409Z,101780.44
2022-10-31T09:51:04.163Z,101777.72
2022-10-31T09:53:44.813Z,101783.81
2022-10-31T09:56:16.263Z,101780.25
2022-10-31T09:58:45.972Z,101774.28
2022-10-31T10:01:24.493Z,101783.72
2022-10-31T10:03:55.940Z,101795.81
2022-10-31T10:06:29.817Z,101805.31
2022-10-31T10:08:57.346Z,101807.88
2022-10-31T10:11:42.279Z,101806.09
2022-10-31T10:14:31.434Z,101801.63
2022-10-31T10:17:10.021Z,101800.84
2022-10-31T10:19:49.106Z,101801.53
2022-10-31T10:22:38.369Z,101801.63
2022-10-31T10:25:24.113Z,101801.91
2022-10-31T10:28:01.813Z,101794.06
2022-10-31T10:30:40.125Z,101788.91
2022-10-31T10:33:12.965Z,101784.41
2022-10-31T10:35:44.617Z,101780.91
2022-10-31T10:38:48.259Z,101777.31
2022-10-31T10:41:20.224Z,101780.06
2022-10-31T10:46:48.660Z,101785.13
2022-10-31T10:49:35.582Z,101779.03
2022-10-31T10:52:39.708Z,101778.09
2022-10-31T10:55:03.335Z,101779.72
2022-10-31T10:57:54.843Z,101769.19
2022-10-31T11:00:42.922Z,101758.75
2022-10-31T11:03:11.229Z,101758.94
2022-10-31T11:06:02.047Z,101752.78
2022-10-31T11:08:32.352Z,101753.63
2022-10-31T11:11:08.009Z,101753.56
2022-10-31T11:13:35.930Z,101750.22
2022-10-31T11:16:12.312Z,101750.13
2022-10-31T11:18:42.754Z,101750.09
2022-10-31T11:21:21.656Z,101754.47
2022-10-31T11:23:48.029Z,101759.59
2022-10-31T11:26:23.431Z,101753.41
2022-10-31T11:29:00.337Z,101744.75
2022-10-31T11:31:28.153Z,101744.66
2022-10-31T11:34:01.729Z,101747.47
2022-10-31T11:36:31.791Z,101747.50
2022-10-31T11:39:00.648Z,101743.88
2022-10-31T11:41:30.952Z,101742.84
2022-10-31T11:44:12.704Z,101734.59
2022-10-31T11:46:46.948Z,101743.22
2022-10-31T11:49:43.920Z,101730.22
2022-10-31T11:52:21.892Z,101731.28
2022-10-31T11:54:50.662Z,101728.84
2022-10-31T11:57:30.262Z,101740.09
2022-10-31T12:00:00.281Z,101751.22
2022-10-31T12:02:27.784Z,101747.50
2022-10-31T12:05:08.688Z,101744.81
2022-10-31T12:07:35.162Z,101740.25
2022-10-31T12:10:01.821Z,101733.97
2022-10-31T12:13:16.020Z,101724.44
2022-10-31T12:15:51.575Z,101732.66
2022-10-31T12:18:48.933Z,101720.63
2022-10-31T12:21:48.923Z,101712.41
2022-10-31T12:24:38.498Z,101707.81
2022-10-31T12:27:22.100Z,101699.91
2022-10-31T12:30:03.909Z,101688.56
2022-10-31T12:32:59.919Z,101708.66
2022-10-31T12:35:45.445Z,101706.78
2022-10-31T12:38:38.059Z,101710.19
2022-10-31T12:41:30.671Z,101693.84
2022-10-31T12:44:01.493Z,101685.09
2022-10-31T12:46:30.782Z,101689.72
2022-10-31T12:49:18.834Z,101692.34
2022-10-31T12:52:11.281Z,101699.41
2022-10-31T12:55:04.433Z,101705.53
2022-10-31T12:57:33.631Z,101706.28
2022-10-31T13:00:11.975Z,101699.34
2022-10-31T13:02:57.033Z,101701.81
2022-10-31T13:05:30.230Z,101699.81
2022-10-31T13:08:02.813Z,101699.94
2022-10-31T13:10:35.839Z,101697.47
2022-10-31T13:13:09.029Z,101689.31
2022-10-31T13:15:46.708Z,101688.50
2022-10-31T13:18:22.906Z,101682.13
2022-10-31T13:20:54.705Z,101683.16
2022-10-31T13:26:37.749Z,101670.16
2022-10-31T13:29:13.138Z,101675.44
2022-10-31T13:31:43.181Z,101674.59
2022-10-31T13:34:25.686Z,101669.47
2022-10-31T13:36:57.537Z,101673.84
2022-10-31T13:39:42.439Z,101665.16
2022-10-31T13:42:30.757Z,101667.88
2022-10-31T13:45:12.046Z,101658.22
2022-10-31T13:47:38.359Z,101645.97
2022-10-31T13:50:07.690Z,101646.09
2022-10-31T13:52:34.058Z,101642.56
2022-10-31T13:55:00.347Z,101649.63
2022-10-31T13:57:42.505Z,101641.66
2022-10-31T14:00:21.065Z,101633.84
2022-10-31T14:02:50.933Z,101635.66
2022-10-31T14:05:28.303Z,101628.00
2022-10-31T14:07:56.139Z,101628.81
2022-10-31T14:10:49.731Z,101615.63
2022-10-31T14:13:18.813Z,101618.09
2022-10-31T14:15:58.343Z,101620.06
2022-10-31T14:18:40.232Z,101618.22
2022-10-31T14:21:41.413Z,101620.00
2022-10-31T14:24:24.531Z,101610.44
2022-10-31T14:26:55.367Z,101606.94
2022-10-31T14:29:25.645Z,101600.00
2022-10-31T14:32:25.986Z,101597.44
2022-10-31T14:34:56.325Z,101594.25
2022-10-31T14:37:31.947Z,101590.88
2022-10-31T14:40:36.094Z,101591.69
2022-10-31T14:43:14.113Z,101589.16
2022-10-31T14:46:17.360Z,101589.19
2022-10-31T14:49:05.171Z,101589.28
2022-10-31T14:51:42.738Z,101586.66
2022-10-31T14:54:15.324Z,101586.69
2022-10-31T14:56:50.157Z,101576.38
2022-10-31T14:59:23.351Z,101563.31
2022-10-31T15:01:57.959Z,101560.69
2022-10-31T15:04:27.843Z,101552.97
2022-10-31T15:07:13.530Z,101549.38
2022-10-31T15:09:43.508Z,101539.88
2022-10-31T15:12:34.002Z,101552.09
2022-10-31T15:15:15.886Z,101560.69
2022-10-31T15:17:53.646Z,101565.03
2022-10-31T15:20:27.017Z,101575.59
2022-10-31T15:22:56.475Z,101576.44
2022-10-31T15:25:24.724Z,101579.03
2022-10-31T15:27:52.485Z,101573.69
2022-10-31T15:30:29.664Z,101565.03
2022-10-31T15:32:58.699Z,101570.31
2022-10-31T15:35:28.285Z,101570.44
2022-10-31T15:37:55.607Z,101570.50
2022-10-31T15:40:24.866Z,101571.34
2022-10-31T15:43:01.302Z,101573.41
2022-10-31T15:45:29.593Z,101574.38
2022-10-31T15:47:59.272Z,101561.38
2022-10-31T15:50:41.430Z,101553.44
2022-10-31T15:53:20.407Z,101552.53
2022-10-31T15:55:53.986Z,101539.66
2022-10-31T15:58:20.797Z,101533.59
2022-10-31T16:01:19.272Z,101536.19
2022-10-31T16:04:00.832Z,101523.22
2022-10-31T16:06:27.964Z,101529.38
2022-10-31T16:08:55.296Z,101524.19
2022-10-31T16:11:21.536Z,101521.66
2022-10-31T16:14:25.185Z,101523.47
2022-10-31T16:16:55.561Z,101527.97
2022-10-31T16:19:25.260Z,101516.66
2022-10-31T16:21:56.434Z,101507.03
2022-10-31T16:24:30.990Z,101515.69
2022-10-31T16:27:06.379Z,101519.16
2022-10-31T16:29:46.606Z,101522.72
2022-10-31T16:32:29.136Z,101520.88
2022-10-31T16:35:08.589Z,101524.28
2022-10-31T16:37:34.985Z,101529.56
2022-10-31T16:40:01.404Z,101525.25
2022-10-31T16:42:27.859Z,101526.06
2022-10-31T16:44:56.377Z,101538.19
2022-10-31T16:47:26.005Z,101539.16
2022-10-31T16:49:54.797Z,101533.03
2022-10-31T16:52:22.062Z,101530.38
2022-10-31T16:54:48.455Z,101530.38
2022-10-31T16:57:18.066Z,101523.41
2022-10-31T16:59:47.099Z,101523.41
2022-10-31T17:02:17.644Z,101523.34
2022-10-31T17:04:44.776Z,101525.19
2022-10-31T17:07:11.227Z,101523.31
2022-10-31T17:09:37.685Z,101517.25
2022-10-31T17:12:05.128Z,101512.94
2022-10-31T17:14:32.170Z,101505.88
2022-10-31T17:16:59.582Z,101520.66
2022-10-31T17:19:26.028Z,101509.25
2022-10-31T17:21:52.393Z,101516.16
2022-10-31T17:24:18.677Z,101521.34
2022-10-31T17:26:45.028Z,101522.16
2022-10-31T17:29:11.415Z,101524.78
2022-10-31T17:31:39.426Z,101517.84
2022-10-31T17:34:07.178Z,101508.19
2022-10-31T17:36:34.238Z,101516.00
2022-10-31T17:39:00.928Z,101513.38
2022-10-31T17:41:27.237Z,101510.75
2022-10-31T17:43:57.694Z,101497.69
2022-10-31T17:46:25.177Z,101490.75
2022-10-31T17:48:52.942Z,101487.31
2022-10-31T17:51:19.291Z,101490.78
2022-10-31T17:53:45.599Z,101488.13
2022-10-31T17:56:11.990Z,101482.91
2022-10-31T17:58:38.520Z,101476.88
2022-10-31T18:01:13.640Z,101470.75
2022-10-31T18:03:41.146Z,101465.53
2022-10-31T18:06:07.933Z,101466.47
2022-10-31T18:08:38.407Z,101464.78
2022-10-31T18:11:15.788Z,101462.09
2022-10-31T18:13:42.426Z,101461.16
2022-10-31T18:16:11.137Z,101465.63
2022-10-31T18:18:37.642Z,101464.72
2022-10-31T18:21:04.362Z,101464.69
2022-10-31T18:23:30.864Z,101465.50
2022-10-31T18:25:57.306Z,101462.06
2022-10-31T18:28:23.878Z,101458.50
2022-10-31T18:30:50.230Z,101461.97
2022-10-31T18:33:16.929Z,101462.84
2022-10-31T18:35:43.311Z,101454.19
2022-10-31T18:38:10.114Z,101455.88
2022-10-31T18:40:36.678Z,101460.31
2022-10-31T18:43:03.619Z,101448.09
2022-10-31T18:45:41.646Z,101449.84
2022-10-31T18:48:14.240Z,101455.97
2022-10-31T18:50:40.570Z,101442.00
2022-10-31T18:53:06.884Z,101442.91
2022-10-31T18:55:33.236Z,101440.28
2022-10-31T18:58:00.531Z,101445.47
2022-10-31T19:00:26.951Z,101447.19
2022-10-31T19:02:56.341Z,101436.69
2022-10-31T19:05:23.069Z,101430.72
2022-10-31T19:07:49.466Z,101433.34
2022-10-31T19:10:15.908Z,101430.72
2022-10-31T19:12:42.233Z,101435.03
2022-10-31T19:15:08.882Z,101436.78
2022-10-31T19:17:35.231Z,101423.69
2022-10-31T19:20:01.544Z,101428.84
2022-10-31T19:22:31.034Z,101415.00
2022-10-31T19:24:57.324Z,101408.91
2022-10-31T19:27:26.297Z,101403.72
2022-10-31T19:29:52.724Z,101405.53
2022-10-31T19:32:19.148Z,101403.81
2022-10-31T19:34:45.521Z,101409.97
2022-10-31T19:37:11.824Z,101418.66
2022-10-31T19:39:43.687Z,101418.69
2022-10-31T19:42:10.898Z,101406.47
2022-10-31T19:44:37.218Z,101423.88
2022-10-31T19:47:03.590Z,101423.84
2022-10-31T19:49:29.964Z,101422.06
2022-10-31T19:51:56.325Z,101410.72
2022-10-31T19:54:22.803Z,101406.44
2022-10-31T19:56:49.414Z,101404.72
2022-10-31T19:59:15.713Z,101397.78
2022-10-31T20:01:42.303Z,101389.94
2022-10-31T20:04:10.537Z,101395.16
2022-10-31T20:06:39.385Z,101395.16
2022-10-31T20:09:09.522Z,101390.00
2022-10-31T20:11:37.811Z,101388.31
2022-10-31T20:14:04.400Z,101383.19
2022-10-31T20:16:32.488Z,101376.97
2022-10-31T20:18:59.724Z,101367.47
2022-10-31T20:21:29.472Z,101357.06
2022-10-31T20:24:01.066Z,101345.78
2022-10-31T20:26:28.843Z,101337.09
2022-10-31T20:28:56.687Z,101318.81
2022-10-31T20:31:26.186Z,101317.13
2022-10-31T20:33:53.495Z,101319.84
2022-10-31T20:36:20.982Z,101332.91
2022-10-31T20:38:47.503Z,101333.75
2022-10-31T20:41:15.003Z,101329.44
2022-10-31T20:43:42.058Z,101339.88
2022-10-31T20:46:12.857Z,101339.03
2022-10-31T20:48:39.526Z,101330.34
2022-10-31T20:51:12.507Z,101328.53
2022-10-31T20:53:38.882Z,101315.47
2022-10-31T20:56:08.598Z,101312.00
2022-10-31T20:58:36.089Z,101316.34
2022-10-31T21:01:03.391Z,101317.19
2022-10-31T21:03:29.783Z,101313.63
2022-10-31T21:05:59.197Z,101313.63
2022-10-31T21:08:29.176Z,101311.84
2022-10-31T21:10:55.800Z,101314.47
2022-10-31T21:13:22.480Z,101310.13
2022-10-31T21:15:58.498Z,101316.19
2022-10-31T21:18:24.897Z,101306.56
2022-10-31T21:20:51.445Z,101301.38
2022-10-31T21:23:17.780Z,101298.75
2022-10-31T21:25:44.574Z,101283.94
2022-10-31T21:28:12.230Z,101287.41
2022-10-31T21:30:43.477Z,101282.09
2022-10-31T21:33:10.090Z,101279.47
2022-10-31T21:35:36.454Z,101265.59
2022-10-31T21:38:03.259Z,101273.44
2022-10-31T21:40:29.974Z,101267.19
2022-10-31T21:42:56.693Z,101262.03
2022-10-31T21:45:23.820Z,101258.59
2022-10-31T21:47:50.569Z,101248.97
2022-10-31T21:50:17.427Z,101241.13
2022-10-31T21:52:43.763Z,101239.34
2022-10-31T21:55:10.335Z,101250.66
2022-10-31T21:57:36.778Z,101253.22
2022-10-31T22:00:06.926Z,101250.63
2022-10-31T22:02:33.246Z,101244.53
2022-10-31T22:04:59.635Z,101234.19
2022-10-31T22:07:25.938Z,101236.78
2022-10-31T22:09:52.411Z,101228.06
2022-10-31T22:12:18.712Z,101236.72
2022-10-31T22:14:45.013Z,101230.59
2022-10-31T22:17:11.320Z,101227.13
2022-10-31T22:19:37.638Z,101221.88
2022-10-31T22:22:03.933Z,101214.97
2022-10-31T22:24:30.284Z,101213.28
2022-10-31T22:26:56.621Z,101204.56
2022-10-31T22:29:22.954Z,101196.75
2022-10-31T22:31:55.157Z,101194.19
2022-10-31T22:34:25.073Z,101204.56
2022-10-31T22:36:51.441Z,101205.44
2022-10-31T22:39:17.952Z,101200.25
2022-10-31T22:41:44.267Z,101190.59
2022-10-31T22:44:11.538Z,101188.03
2022-10-31T22:46:39.430Z,101178.50
2022-10-31T22:49:09.886Z,101181.97
2022-10-31T22:51:38.667Z,101162.72
2022-10-31T22:54:07.189Z,101147.09
2022-10-31T22:56:34.428Z,101139.31
2022-10-31T22:59:01.771Z,101143.63
2022-10-31T23:01:33.105Z,101141.84
2022-10-31T23:04:00.566Z,101130.56
2022-10-31T23:06:32.391Z,101136.63
2022-10-31T23:09:04.439Z,101141.06
2022-10-31T23:11:40.525Z,101156.78
2022-10-31T23:14:13.365Z,101168.88
2022-10-31T23:16:52.605Z,101182.75
2022-10-31T23:19:27.541Z,101175.72
2022-10-31T23:22:00.680Z,101172.97
2022-10-31T23:24:39.570Z,101175.72
2022-10-31T23:27:09.136Z,101168.78
2022-10-31T23:29:38.571Z,101180.16
2022-10-31T23:32:07.692Z,101184.50
2022-10-31T23:34:34.010Z,101174.88
2022-10-31T23:37:00.381Z,101177.50
2022-10-31T23:39:26.776Z,101157.59
2022-10-31T23:41:53.135Z,101155.88
2022-10-31T23:44:19.466Z,101146.34
2022-10-31T23:46:45.883Z,101140.25
2022-10-31T23:49:12.202Z,101139.41
2022-10-31T23:51:39.182Z,101133.31
2022-10-31T23:54:05.956Z,101126.44
2022-10-31T23:56:32.417Z,101127.25
2022-10-31T23:58:58.772Z,101125.59
